Time,TemperatureF,DewpointF,PressureIn,WindDirection,WindDirectionDegrees,WindSpeedMPH,WindSpeedGustMPH,Humidity,HourlyPrecipIn,Conditions,Clouds,dailyrainin,SoftwareType,DateUTC
2013-09-25 00:07:00,64.0,63.4,29.84,West,270,0.0,-999.0,98,-99.99,,,0.00,Acu-Link.com,2013-09-25 04:07:00,
2013-09-25 00:23:00,64.0,63.4,29.83,ESE,112,0.0,-999.0,98,-99.99,,,0.00,Acu-Link.com,2013-09-25 04:23:00,
2013-09-25 00:38:00,64.0,63.4,29.82,SSE,157,0.0,-999.0,98,-99.99,,,0.00,Acu-Link.com,2013-09-25 04:38:00,
2013-09-25 00:53:00,64.0,63.4,29.82,SSE,157,0.0,-999.0,98,-99.99,,,0.00,Acu-Link.com,2013-09-25 04:53:00,
2013-09-25 01:08:00,64.0,63.4,29.81,South,180,0.0,-999.0,98,-99.99,,,0.00,Acu-Link.com,2013-09-25 05:08:00,
2013-09-25 01:23:00,64.2,63.6,29.82,SSE,157,0.0,-999.0,98,-99.99,,,0.01,Acu-Link.com,2013-09-25 05:23:00,
2013-09-25 01:38:00,64.4,63.8,29.82,West,270,0.0,-999.0,98,-99.99,,,0.08,Acu-Link.com,2013-09-25 05:38:00,
2013-09-25 01:53:00,64.4,63.8,29.82,West,270,0.0,-999.0,98,-99.99,,,0.13,Acu-Link.com,2013-09-25 05:53:00,
2013-09-25 02:08:00,64.4,63.8,29.82,WSW,247,0.0,-999.0,98,-99.99,,,0.17,Acu-Link.com,2013-09-25 06:08:00,
2013-09-25 02:23:00,64.6,64.0,29.82,WSW,247,0.0,-999.0,98,-99.99,,,0.18,Acu-Link.com,2013-09-25 06:23:00,
2013-09-25 02:39:00,64.6,64.0,29.82,SSW,202,0.0,-999.0,98,-99.99,,,0.19,Acu-Link.com,2013-09-25 06:39:00,
2013-09-25 02:54:00,64.8,64.2,29.82,SW,225,0.0,-999.0,98,-99.99,,,0.20,Acu-Link.com,2013-09-25 06:54:00,
2013-09-25 03:09:00,64.8,64.2,29.82,SSW,202,0.0,-999.0,98,-99.99,,,0.24,Acu-Link.com,2013-09-25 07:09:00,
2013-09-25 03:24:00,64.8,64.2,29.81,WSW,247,0.0,-999.0,98,-99.99,,,0.28,Acu-Link.com,2013-09-25 07:24:00,
2013-09-25 03:39:00,64.8,64.2,29.81,SSW,202,0.0,-999.0,98,-99.99,,,0.29,Acu-Link.com,2013-09-25 07:39:00,
2013-09-25 03:54:00,64.8,64.2,29.80,South,180,0.0,-999.0,98,-99.99,,,0.30,Acu-Link.com,2013-09-25 07:54:00,
2013-09-25 04:09:00,64.8,64.2,29.80,South,180,0.0,-999.0,98,-99.99,,,0.30,Acu-Link.com,2013-09-25 08:09:00,
2013-09-25 04:25:00,64.8,64.2,29.79,South,180,0.0,-999.0,98,-99.99,,,0.30,Acu-Link.com,2013-09-25 08:25:00,
2013-09-25 04:40:00,64.8,64.2,29.80,South,180,0.0,-999.0,98,-99.99,,,0.30,Acu-Link.com,2013-09-25 08:40:00,
2013-09-25 04:55:00,64.8,64.2,29.79,South,180,0.0,-999.0,98,-99.99,,,0.30,Acu-Link.com,2013-09-25 08:55:00,
2013-09-25 05:10:00,64.8,64.2,29.79,SW,225,0.0,-999.0,98,-99.99,,,0.30,Acu-Link.com,2013-09-25 09:10:00,
2013-09-25 05:27:00,64.8,64.2,29.79,SW,225,0.0,-999.0,98,-99.99,,,0.30,Acu-Link.com,2013-09-25 09:27:00,
2013-09-25 05:42:00,64.8,64.2,29.79,SSE,157,0.0,-999.0,98,-99.99,,,0.30,Acu-Link.com,2013-09-25 09:42:00,
2013-09-25 05:58:00,64.4,63.8,29.80,South,180,0.0,-999.0,98,-99.99,,,0.30,Acu-Link.com,2013-09-25 09:58:00,
2013-09-25 06:13:00,64.2,63.6,29.81,NNW,337,0.0,-999.0,98,-99.99,,,0.30,Acu-Link.com,2013-09-25 10:13:00,
2013-09-25 06:28:00,64.2,63.6,29.80,NNW,337,0.0,-999.0,98,-99.99,,,0.30,Acu-Link.com,2013-09-25 10:28:00,
2013-09-25 06:44:00,64.0,63.4,29.80,NNW,337,0.0,-999.0,98,-99.99,,,0.30,Acu-Link.com,2013-09-25 10:44:00,
2013-09-25 06:59:00,63.9,63.3,29.81,NW,315,0.0,-999.0,98,-99.99,,,0.30,Acu-Link.com,2013-09-25 10:59:00,
2013-09-25 07:14:00,63.7,63.1,29.80,NE,45,0.0,-999.0,98,-99.99,,,0.30,Acu-Link.com,2013-09-25 11:14:00,
2013-09-25 07:29:00,63.7,63.1,29.80,NE,45,0.0,-999.0,98,-99.99,,,0.30,Acu-Link.com,2013-09-25 11:29:00,
2013-09-25 07:45:00,63.5,62.9,29.80,NE,45,0.0,-999.0,98,-99.99,,,0.30,Acu-Link.com,2013-09-25 11:45:00,
2013-09-25 08:00:00,63.5,62.9,29.80,South,180,0.0,-999.0,98,-99.99,,,0.31,Acu-Link.com,2013-09-25 12:00:00,
2013-09-25 08:15:00,63.5,62.9,29.81,SSE,157,0.0,-999.0,98,-99.99,,,0.31,Acu-Link.com,2013-09-25 12:15:00,
2013-09-25 08:30:00,63.7,63.1,29.82,South,180,0.0,-999.0,98,-99.99,,,0.31,Acu-Link.com,2013-09-25 12:30:00,
2013-09-25 08:45:00,63.5,62.9,29.82,South,180,0.0,-999.0,98,-99.99,,,0.31,Acu-Link.com,2013-09-25 12:45:00,
2013-09-25 09:01:00,63.5,62.9,29.80,SSE,157,0.0,-999.0,98,-99.99,,,0.42,Acu-Link.com,2013-09-25 13:01:00,
2013-09-25 09:16:00,63.5,62.9,29.80,South,180,0.0,-999.0,98,-99.99,,,0.58,Acu-Link.com,2013-09-25 13:16:00,
2013-09-25 09:31:00,63.3,62.7,29.81,SSW,202,0.0,-999.0,98,-99.99,,,0.61,Acu-Link.com,2013-09-25 13:31:00,
2013-09-25 09:46:00,63.1,62.5,29.83,WNW,292,0.0,-999.0,98,-99.99,,,0.62,Acu-Link.com,2013-09-25 13:46:00,
2013-09-25 10:01:00,63.1,62.5,29.85,SW,225,0.0,-999.0,98,-99.99,,,0.72,Acu-Link.com,2013-09-25 14:01:00,
2013-09-25 10:16:00,63.1,62.5,29.83,ESE,112,0.0,-999.0,98,-99.99,,,1.04,Acu-Link.com,2013-09-25 14:16:00,
2013-09-25 10:31:00,63.1,62.5,29.83,SSE,157,0.0,-999.0,98,-99.99,,,1.15,Acu-Link.com,2013-09-25 14:31:00,
2013-09-25 10:46:00,63.5,62.9,29.84,WNW,292,0.0,-999.0,98,-99.99,,,1.23,Acu-Link.com,2013-09-25 14:46:00,
2013-09-25 11:02:00,63.9,63.3,29.84,NNW,337,0.0,-999.0,98,-99.99,,,1.25,Acu-Link.com,2013-09-25 15:02:00,
2013-09-25 11:17:00,64.2,63.6,29.84,NE,45,0.0,-999.0,98,-99.99,,,1.27,Acu-Link.com,2013-09-25 15:17:00,
2013-09-25 11:32:00,64.2,63.6,29.84,South,180,0.0,-999.0,98,-99.99,,,1.27,Acu-Link.com,2013-09-25 15:32:00,
2013-09-25 11:47:00,65.3,64.7,29.83,West,270,1.1,-999.0,98,-99.99,,,1.27,Acu-Link.com,2013-09-25 15:47:00,
2013-09-25 12:02:00,65.8,65.2,29.83,ESE,112,0.0,-999.0,98,-99.99,,,1.27,Acu-Link.com,2013-09-25 16:02:00,
2013-09-25 12:18:00,66.6,66.0,29.84,NE,45,0.0,-999.0,98,-99.99,,,1.27,Acu-Link.com,2013-09-25 16:18:00,
2013-09-25 12:33:00,67.1,66.5,29.83,South,180,0.0,-999.0,98,-99.99,,,1.27,Acu-Link.com,2013-09-25 16:33:00,
2013-09-25 12:48:00,68.0,64.3,29.82,SSW,202,0.0,-999.0,88,-99.99,,,1.27,Acu-Link.com,2013-09-25 16:48:00,
2013-09-25 13:03:00,67.3,63.6,29.82,East,90,0.0,-999.0,88,-99.99,,,1.27,Acu-Link.com,2013-09-25 17:03:00,
2013-09-25 13:18:00,69.3,64.6,29.82,East,90,0.0,-999.0,85,-99.99,,,1.27,Acu-Link.com,2013-09-25 17:18:00,
2013-09-25 13:33:00,68.0,63.6,29.81,SW,225,1.1,-999.0,86,-99.99,,,1.27,Acu-Link.com,2013-09-25 17:33:00,
2013-09-25 13:49:00,68.4,63.0,29.80,ESE,112,2.2,-999.0,83,-99.99,,,1.27,Acu-Link.com,2013-09-25 17:49:00,
2013-09-25 14:04:00,70.0,63.2,29.80,NNW,337,1.1,-999.0,79,-99.99,,,1.27,Acu-Link.com,2013-09-25 18:04:00,
2013-09-25 14:19:00,71.6,62.9,29.79,East,90,0.0,-999.0,74,-99.99,,,1.27,Acu-Link.com,2013-09-25 18:19:00,
2013-09-25 14:34:00,71.6,63.6,29.78,ESE,112,0.0,-999.0,76,-99.99,,,1.27,Acu-Link.com,2013-09-25 18:34:00,
2013-09-25 14:49:00,71.6,61.7,29.78,West,270,0.0,-999.0,71,-99.99,,,1.27,Acu-Link.com,2013-09-25 18:49:00,
2013-09-25 15:04:00,70.2,61.5,29.79,SSE,157,0.0,-999.0,74,-99.99,,,1.27,Acu-Link.com,2013-09-25 19:04:00,
2013-09-25 15:19:00,69.6,62.1,29.77,SSE,157,0.0,-999.0,77,-99.99,,,1.27,Acu-Link.com,2013-09-25 19:19:00,
2013-09-25 15:34:00,68.7,60.8,29.77,SE,135,0.0,-999.0,76,-99.99,,,1.27,Acu-Link.com,2013-09-25 19:34:00,
2013-09-25 15:49:00,68.4,62.0,29.77,North,0,0.0,-999.0,80,-99.99,,,1.27,Acu-Link.com,2013-09-25 19:49:00,
2013-09-25 16:05:00,68.4,61.3,29.77,North,0,0.0,-999.0,78,-99.99,,,1.27,Acu-Link.com,2013-09-25 20:05:00,
2013-09-25 16:20:00,67.8,61.0,29.77,North,0,0.0,-999.0,79,-99.99,,,1.27,Acu-Link.com,2013-09-25 20:20:00,
2013-09-25 16:35:00,67.3,62.0,29.76,North,0,0.0,-999.0,83,-99.99,,,1.27,Acu-Link.com,2013-09-25 20:35:00,
2013-09-25 16:50:00,67.1,62.8,29.77,North,0,0.0,-999.0,86,-99.99,,,1.27,Acu-Link.com,2013-09-25 20:50:00,
2013-09-25 17:05:00,66.6,62.3,29.78,ESE,112,0.0,-999.0,86,-99.99,,,1.27,Acu-Link.com,2013-09-25 21:05:00,
2013-09-25 17:20:00,66.2,65.0,29.77,ESE,112,0.0,-999.0,96,-99.99,,,1.30,Acu-Link.com,2013-09-25 21:20:00,
2013-09-25 17:35:00,65.8,65.2,29.77,ESE,112,0.0,-999.0,98,-99.99,,,1.33,Acu-Link.com,2013-09-25 21:35:00,
2013-09-25 17:50:00,65.7,65.1,29.77,ESE,112,0.0,-999.0,98,-99.99,,,1.37,Acu-Link.com,2013-09-25 21:50:00,
2013-09-25 18:05:00,65.8,65.2,29.76,WSW,247,0.0,-999.0,98,-99.99,,,1.40,Acu-Link.com,2013-09-25 22:05:00,
2013-09-25 18:20:00,65.7,65.1,29.76,South,180,0.0,-999.0,98,-99.99,,,1.40,Acu-Link.com,2013-09-25 22:20:00,
2013-09-25 18:36:00,65.3,64.7,29.77,South,180,0.0,-999.0,98,-99.99,,,1.40,Acu-Link.com,2013-09-25 22:36:00,
2013-09-25 18:51:00,65.1,64.5,29.77,SW,225,0.0,-999.0,98,-99.99,,,1.40,Acu-Link.com,2013-09-25 22:51:00,
2013-09-25 19:06:00,64.8,64.2,29.77,WSW,247,0.0,-999.0,98,-99.99,,,1.40,Acu-Link.com,2013-09-25 23:06:00,
2013-09-25 19:21:00,64.8,64.2,29.78,SSW,202,0.0,-999.0,98,-99.99,,,1.40,Acu-Link.com,2013-09-25 23:21:00,
2013-09-25 19:36:00,64.8,64.2,29.78,SW,225,0.0,-999.0,98,-99.99,,,1.41,Acu-Link.com,2013-09-25 23:36:00,
2013-09-25 19:51:00,64.6,64.0,29.78,SW,225,0.0,-999.0,98,-99.99,,,1.41,Acu-Link.com,2013-09-25 23:51:00,
2013-09-25 20:06:00,64.4,63.8,29.77,SW,225,0.0,-999.0,98,-99.99,,,1.41,Acu-Link.com,2013-09-26 00:06:00,
2013-09-25 20:21:00,64.4,63.8,29.78,SSW,202,0.0,-999.0,98,-99.99,,,1.41,Acu-Link.com,2013-09-26 00:21:00,
2013-09-25 20:36:00,64.2,63.6,29.78,SSW,202,0.0,-999.0,98,-99.99,,,1.41,Acu-Link.com,2013-09-26 00:36:00,
2013-09-25 20:52:00,64.2,63.6,29.79,SSW,202,0.0,-999.0,98,-99.99,,,1.41,Acu-Link.com,2013-09-26 00:52:00,
2013-09-25 21:07:00,64.2,63.6,29.79,West,270,0.0,-999.0,98,-99.99,,,1.41,Acu-Link.com,2013-09-26 01:07:00,
2013-09-25 21:22:00,64.2,63.6,29.78,SSW,202,0.0,-999.0,98,-99.99,,,1.41,Acu-Link.com,2013-09-26 01:22:00,
2013-09-25 21:37:00,64.2,63.6,29.80,SSW,202,0.0,-999.0,98,-99.99,,,1.41,Acu-Link.com,2013-09-26 01:37:00,
2013-09-25 21:52:00,64.2,63.6,29.79,SSW,202,0.0,-999.0,98,-99.99,,,1.41,Acu-Link.com,2013-09-26 01:52:00,
2013-09-25 22:07:00,64.2,63.6,29.80,SSW,202,0.0,-999.0,98,-99.99,,,1.41,Acu-Link.com,2013-09-26 02:07:00,
2013-09-25 22:22:00,64.2,62.4,29.80,SSW,202,0.0,-999.0,94,-99.99,,,1.41,Acu-Link.com,2013-09-26 02:22:00,
2013-09-25 22:37:00,64.0,63.4,29.80,SSW,202,0.0,-999.0,98,-99.99,,,1.41,Acu-Link.com,2013-09-26 02:37:00,
2013-09-25 22:52:00,64.0,63.4,29.80,SSW,202,0.0,-999.0,98,-99.99,,,1.41,Acu-Link.com,2013-09-26 02:52:00,
2013-09-25 23:08:00,64.0,63.4,29.80,SSW,202,0.0,-999.0,98,-99.99,,,1.41,Acu-Link.com,2013-09-26 03:08:00,
2013-09-25 23:23:00,63.9,63.3,29.80,SSW,202,0.0,-999.0,98,-99.99,,,1.41,Acu-Link.com,2013-09-26 03:23:00,
2013-09-25 23:38:00,63.9,63.3,29.80,WSW,247,0.0,-999.0,98,-99.99,,,1.41,Acu-Link.com,2013-09-26 03:38:00,
2013-09-25 23:53:00,63.9,63.3,29.80,WSW,247,0.0,-999.0,98,-99.99,,,1.41,Acu-Link.com,2013-09-26 03:53:00,